createdAt,value
2018-04-30T00:01:30.576Z,9.27
2018-04-30T00:04:00.174Z,11.40
2018-04-30T00:06:29.264Z,9.10
2018-04-30T00:08:58.375Z,8.37
2018-04-30T00:11:27.178Z,10.37
2018-04-30T00:13:55.507Z,10.20
2018-04-30T00:16:23.858Z,8.77
2018-04-30T00:18:52.318Z,8.53
2018-04-30T00:21:20.658Z,8.50
2018-04-30T00:23:49.758Z,12.53
2018-04-30T00:26:18.891Z,8.30
2018-04-30T00:28:47.220Z,8.33
2018-04-30T00:31:16.424Z,9.40
2018-04-30T00:33:45.522Z,9.23
2018-04-30T00:36:14.603Z,11.00
2018-04-30T00:38:42.944Z,9.57
2018-04-30T00:41:11.278Z,9.77
2018-04-30T00:43:40.425Z,12.40
2018-04-30T00:46:08.765Z,9.23
2018-04-30T00:48:37.115Z,9.47
2018-04-30T00:51:06.208Z,9.17
2018-04-30T00:53:35.440Z,8.60
2018-04-30T00:56:03.814Z,9.67
2018-04-30T00:58:32.168Z,9.70
2018-04-30T01:01:01.326Z,10.67
2018-04-30T01:03:31.280Z,14.47
2018-04-30T01:06:01.855Z,10.63
2018-04-30T01:08:31.951Z,10.70
2018-04-30T01:11:01.583Z,12.70
2018-04-30T01:13:29.926Z,12.17
2018-04-30T01:15:58.272Z,11.77
2018-04-30T01:18:26.639Z,12.13
2018-04-30T01:20:55.573Z,12.53
2018-04-30T01:23:23.960Z,13.07
2018-04-30T01:25:53.047Z,13.67
2018-04-30T01:28:21.401Z,15.47
2018-04-30T01:30:50.548Z,15.87
2018-04-30T01:33:18.919Z,11.57
2018-04-30T01:35:47.242Z,14.00
2018-04-30T01:38:16.360Z,11.13
2018-04-30T01:40:44.731Z,14.87
2018-04-30T01:43:14.243Z,13.13
2018-04-30T01:45:42.571Z,16.53
2018-04-30T01:48:10.909Z,15.90
2018-04-30T01:50:40.022Z,18.40
2018-04-30T01:53:08.345Z,15.73
2018-04-30T01:55:37.476Z,15.17
2018-04-30T01:58:05.815Z,14.30
2018-04-30T02:00:34.157Z,18.10
2018-04-30T02:03:02.524Z,15.90
2018-04-30T02:05:30.869Z,13.33
2018-04-30T02:08:00.007Z,15.33
2018-04-30T02:10:28.332Z,14.77
2018-04-30T02:12:57.878Z,13.63
2018-04-30T02:15:26.223Z,13.10
2018-04-30T02:17:55.304Z,14.30
2018-04-30T02:20:24.414Z,13.93
2018-04-30T02:22:53.539Z,16.77
2018-04-30T02:25:21.918Z,15.23
2018-04-30T02:27:50.288Z,13.07
2018-04-30T02:30:18.641Z,13.97
2018-04-30T02:32:47.735Z,13.87
2018-04-30T02:35:16.968Z,13.23
2018-04-30T02:37:45.318Z,15.53
2018-04-30T02:40:13.679Z,13.77
2018-04-30T02:42:42.819Z,18.07
2018-04-30T02:45:11.161Z,13.97
2018-04-30T02:47:39.530Z,14.30
2018-04-30T02:50:08.662Z,14.13
2018-04-30T02:52:37.102Z,13.70
2018-04-30T02:55:06.238Z,16.73
2018-04-30T02:57:35.344Z,15.47
2018-04-30T03:00:03.731Z,12.80
2018-04-30T03:02:32.064Z,14.67
2018-04-30T03:05:00.437Z,16.23
2018-04-30T03:07:28.773Z,17.43
2018-04-30T03:09:57.615Z,17.73
2018-04-30T03:12:25.954Z,15.33
2018-04-30T03:14:54.290Z,14.27
2018-04-30T03:17:22.664Z,13.37
2018-04-30T03:19:51.016Z,17.13
2018-04-30T03:22:19.389Z,13.57
2018-04-30T03:24:48.472Z,14.30
2018-04-30T03:27:17.677Z,16.50
2018-04-30T03:29:46.247Z,16.50
2018-04-30T03:32:15.352Z,14.90
2018-04-30T03:34:44.488Z,18.93
2018-04-30T03:37:12.828Z,17.30
2018-04-30T03:39:41.975Z,17.13
2018-04-30T03:42:10.295Z,15.70
2018-04-30T03:44:39.386Z,18.30
2018-04-30T03:47:08.615Z,16.33
2018-04-30T03:49:36.994Z,17.37
2018-04-30T03:52:06.093Z,15.90
2018-04-30T03:54:34.456Z,17.27
2018-04-30T03:57:02.825Z,18.60
2018-04-30T03:59:31.313Z,18.23
2018-04-30T04:02:11.508Z,17.03
2018-04-30T04:04:51.569Z,17.53
2018-04-30T04:07:19.922Z,17.33
2018-04-30T04:09:48.609Z,19.60
2018-04-30T04:12:16.956Z,16.47
2018-04-30T04:14:45.283Z,22.37
2018-04-30T04:17:13.640Z,17.50
2018-04-30T04:19:41.960Z,19.20
2018-04-30T04:22:10.335Z,20.20
2018-04-30T04:24:38.723Z,15.57
2018-04-30T04:27:07.987Z,17.93
2018-04-30T04:29:36.339Z,19.50
2018-04-30T04:32:04.668Z,17.80
2018-04-30T04:34:33.013Z,18.87
2018-04-30T04:37:01.372Z,16.40
2018-04-30T04:39:29.717Z,20.37
2018-04-30T04:41:58.854Z,19.53
2018-04-30T04:44:27.219Z,16.60
2018-04-30T04:46:55.579Z,18.40
2018-04-30T04:49:23.937Z,17.73
2018-04-30T04:51:53.063Z,18.40
2018-04-30T04:54:21.410Z,17.40
2018-04-30T04:56:50.513Z,22.13
2018-04-30T04:59:20.016Z,15.87
2018-04-30T05:01:49.105Z,16.37
2018-04-30T05:04:18.203Z,16.40
2018-04-30T05:06:47.318Z,17.80
2018-04-30T05:09:15.660Z,15.43
2018-04-30T05:11:44.024Z,19.03
2018-04-30T05:14:12.376Z,19.93
2018-04-30T05:16:40.760Z,18.37
2018-04-30T05:19:09.085Z,17.27
2018-04-30T05:21:38.210Z,16.43
2018-04-30T05:24:06.626Z,18.00
2018-04-30T05:26:34.992Z,17.43
2018-04-30T05:29:03.316Z,18.00
2018-04-30T05:31:32.437Z,16.70
2018-04-30T05:34:00.819Z,14.07
2018-04-30T05:36:29.194Z,16.57
2018-04-30T05:38:57.539Z,17.67
2018-04-30T05:41:26.644Z,18.37
2018-04-30T05:43:55.006Z,15.07
2018-04-30T05:46:24.112Z,15.77
2018-04-30T05:48:53.665Z,15.17
2018-04-30T05:51:22.012Z,16.87
2018-04-30T05:53:50.352Z,15.30
2018-04-30T05:56:18.737Z,13.77
2018-04-30T05:58:47.877Z,15.17
2018-04-30T06:01:16.232Z,16.07
2018-04-30T06:03:44.584Z,12.27
2018-04-30T06:06:13.056Z,14.17
2018-04-30T06:08:41.414Z,14.50
2018-04-30T06:11:09.763Z,12.27
2018-04-30T06:13:38.125Z,13.67
2018-04-30T06:16:06.459Z,13.87
2018-04-30T06:18:34.817Z,14.43
2018-04-30T06:21:03.200Z,13.53
2018-04-30T06:23:31.543Z,13.70
2018-04-30T06:25:59.887Z,13.43
2018-04-30T06:28:29.024Z,18.67
2018-04-30T06:30:57.356Z,13.77
2018-04-30T06:33:26.497Z,14.13
2018-04-30T06:35:54.989Z,17.53
2018-04-30T06:38:23.267Z,18.80
2018-04-30T06:40:51.597Z,20.27
2018-04-30T06:43:20.722Z,19.90
2018-04-30T06:45:49.060Z,18.43
2018-04-30T06:48:18.192Z,20.00
2018-04-30T06:50:46.527Z,20.87
2018-04-30T06:53:15.782Z,21.73
2018-04-30T06:55:44.140Z,21.97
2018-04-30T06:58:12.479Z,24.50
2018-04-30T07:00:40.853Z,21.87
2018-04-30T07:03:09.934Z,24.17
2018-04-30T07:05:38.314Z,23.87
2018-04-30T07:08:06.687Z,22.43
2018-04-30T07:10:35.160Z,23.77
2018-04-30T07:13:03.502Z,24.97
2018-04-30T07:15:31.841Z,26.53
2018-04-30T07:18:00.201Z,23.07
2018-04-30T07:20:30.545Z,21.47
2018-04-30T07:22:58.916Z,23.57
2018-04-30T07:25:27.234Z,30.77
2018-04-30T07:27:55.676Z,21.33
2018-04-30T07:30:24.000Z,21.37
2018-04-30T07:32:52.489Z,20.37
2018-04-30T07:35:21.193Z,23.20
2018-04-30T07:37:49.516Z,20.17
2018-04-30T07:40:18.650Z,20.53
2018-04-30T07:42:47.015Z,22.03
2018-04-30T07:45:15.376Z,20.70
2018-04-30T07:47:44.647Z,22.03
2018-04-30T07:50:13.775Z,19.13
2018-04-30T07:52:42.521Z,22.30
2018-04-30T07:55:11.747Z,18.73
2018-04-30T07:57:40.872Z,18.03
2018-04-30T08:00:09.992Z,7.80
2018-04-30T08:02:38.338Z,7.17
2018-04-30T08:05:06.691Z,3.93
2018-04-30T08:07:35.846Z,3.97
2018-04-30T08:10:04.321Z,3.50
2018-04-30T08:12:32.654Z,3.97
2018-04-30T08:15:00.977Z,4.30
2018-04-30T08:17:29.345Z,3.53
2018-04-30T08:19:57.680Z,4.77
2018-04-30T08:22:27.451Z,4.83
2018-04-30T08:24:55.836Z,3.70
2018-04-30T08:27:24.356Z,3.60
2018-04-30T08:29:53.043Z,4.40
2018-04-30T08:32:21.710Z,4.43
2018-04-30T08:34:51.159Z,3.67
2018-04-30T08:37:20.039Z,4.43
2018-04-30T08:39:49.219Z,2.37
2018-04-30T08:42:17.870Z,2.77
2018-04-30T08:44:46.505Z,1.93
2018-04-30T08:47:19.724Z,2.33
2018-04-30T08:49:52.434Z,1.97
2018-04-30T08:52:25.889Z,1.40
2018-04-30T08:55:02.733Z,1.83
2018-04-30T08:57:38.096Z,1.47
2018-04-30T09:00:11.236Z,5.10
2018-04-30T09:02:44.925Z,1.20
2018-04-30T09:05:19.290Z,1.33
2018-04-30T09:07:54.093Z,1.77
2018-04-30T09:10:26.853Z,1.77
2018-04-30T09:13:00.962Z,0.77
2018-04-30T09:15:31.583Z,1.60
2018-04-30T09:18:02.313Z,0.70
2018-04-30T09:20:32.115Z,2.10
2018-04-30T09:23:00.565Z,1.00
2018-04-30T09:25:28.924Z,1.03
2018-04-30T09:27:58.044Z,1.60
2018-04-30T09:30:26.925Z,0.80
2018-04-30T09:35:40.611Z,1.33
2018-04-30T09:38:11.987Z,1.30
2018-04-30T09:40:43.816Z,0.80
2018-04-30T09:43:16.268Z,0.77
2018-04-30T09:45:46.492Z,0.57
2018-04-30T09:48:16.110Z,0.63
2018-04-30T09:50:46.219Z,1.77
2018-04-30T09:53:16.124Z,0.97
2018-04-30T09:55:47.471Z,0.80
2018-04-30T09:58:19.989Z,2.00
2018-04-30T10:00:54.632Z,0.83
2018-04-30T10:03:23.555Z,1.17
2018-04-30T10:05:56.124Z,2.10
2018-04-30T10:08:28.367Z,2.70
2018-04-30T10:10:58.768Z,2.17
2018-04-30T10:13:28.821Z,1.17
2018-04-30T10:15:58.227Z,0.93
2018-04-30T10:18:28.001Z,2.40
2018-04-30T10:20:59.732Z,2.37
2018-04-30T10:23:32.215Z,0.97
2018-04-30T10:26:05.208Z,1.70
2018-04-30T10:28:34.495Z,1.10
2018-04-30T10:31:02.871Z,2.10
2018-04-30T10:33:31.209Z,2.03
2018-04-30T10:36:00.613Z,1.33
2018-04-30T10:38:31.532Z,0.90
2018-04-30T10:41:00.113Z,1.60
2018-04-30T10:43:28.480Z,1.87
2018-04-30T10:45:57.313Z,2.93
2018-04-30T10:48:26.526Z,1.57
2018-04-30T10:50:55.346Z,2.17
2018-04-30T10:53:24.478Z,2.23
2018-04-30T10:55:53.611Z,1.10
2018-04-30T10:58:21.960Z,1.33
2018-04-30T11:00:51.084Z,2.13
2018-04-30T11:03:19.444Z,1.53
2018-04-30T11:05:47.754Z,1.17
2018-04-30T11:08:16.084Z,1.30
2018-04-30T11:10:45.191Z,1.20
2018-04-30T11:13:13.510Z,1.20
2018-04-30T11:15:44.251Z,1.67
2018-04-30T11:18:12.589Z,2.10
2018-04-30T11:20:40.987Z,1.87
2018-04-30T11:23:09.299Z,1.60
2018-04-30T11:25:37.609Z,1.33
2018-04-30T11:28:05.974Z,2.30
2018-04-30T11:30:35.139Z,1.50
2018-04-30T11:33:03.450Z,2.00
2018-04-30T11:35:31.802Z,1.67
2018-04-30T11:38:00.947Z,3.07
2018-04-30T11:40:29.313Z,1.70
2018-04-30T11:42:57.677Z,1.93
2018-04-30T11:45:26.053Z,1.73
2018-04-30T11:47:54.373Z,1.10
2018-04-30T11:50:22.828Z,1.73
2018-04-30T11:52:51.173Z,4.83
2018-04-30T11:55:20.285Z,1.67
2018-04-30T11:57:48.690Z,1.17
2018-04-30T12:00:17.031Z,1.43
2018-04-30T12:02:46.171Z,6.63
2018-04-30T12:05:14.520Z,1.00
2018-04-30T12:07:42.862Z,1.20
2018-04-30T12:10:11.221Z,0.80
2018-04-30T12:12:39.582Z,1.30
2018-04-30T12:15:08.035Z,1.00
2018-04-30T12:17:36.448Z,1.70
2018-04-30T12:20:04.870Z,1.83
2018-04-30T12:22:34.135Z,1.33
2018-04-30T12:25:02.655Z,1.93
2018-04-30T12:27:31.810Z,1.10
2018-04-30T12:30:00.379Z,1.13
2018-04-30T12:32:28.944Z,2.33
2018-04-30T12:34:57.307Z,1.27
2018-04-30T12:37:25.630Z,1.03
2018-04-30T12:39:55.634Z,0.90
2018-04-30T12:42:24.191Z,1.20
2018-04-30T12:44:52.597Z,1.50
2018-04-30T12:47:20.979Z,1.23
2018-04-30T12:49:49.377Z,1.30
2018-04-30T12:52:20.816Z,0.80
2018-04-30T12:54:49.167Z,1.00
2018-04-30T12:57:17.514Z,1.43
2018-04-30T12:59:45.888Z,1.77
2018-04-30T13:02:14.217Z,1.90
2018-04-30T13:04:42.619Z,1.07
2018-04-30T13:07:11.748Z,1.20
2018-04-30T13:09:40.182Z,3.93
2018-04-30T13:12:08.583Z,0.93
2018-04-30T14:36:35.473Z,0.70
2018-04-30T14:39:03.873Z,0.77
2018-04-30T14:41:32.254Z,1.77
2018-04-30T14:44:00.630Z,1.10
2018-04-30T14:46:28.984Z,1.73
2018-04-30T14:48:57.368Z,3.40
2018-04-30T14:51:25.872Z,2.20
2018-04-30T14:53:54.212Z,4.67
2018-04-30T14:56:22.564Z,2.00
2018-04-30T14:58:50.926Z,0.90
2018-04-30T15:01:19.296Z,1.57
2018-04-30T15:03:47.630Z,1.73
2018-04-30T15:06:16.004Z,2.40
2018-04-30T15:08:44.465Z,1.33
2018-04-30T15:11:13.566Z,1.60
2018-04-30T15:13:42.680Z,3.00
2018-04-30T15:16:11.800Z,2.40
2018-04-30T15:18:40.425Z,2.10
2018-04-30T15:21:08.806Z,1.77
2018-04-30T15:23:39.454Z,0.80
2018-04-30T15:26:11.102Z,1.40
2018-04-30T15:28:40.261Z,1.23
2018-04-30T15:31:08.610Z,1.20
2018-04-30T15:33:37.012Z,2.57
2018-04-30T15:36:06.244Z,2.23
2018-04-30T15:38:35.346Z,0.60
2018-04-30T15:41:05.251Z,2.00
2018-04-30T15:43:33.606Z,2.37
2018-04-30T15:46:01.944Z,2.77
2018-04-30T15:48:30.846Z,0.93
2018-04-30T15:50:59.951Z,0.80
2018-04-30T15:53:28.261Z,0.87
2018-04-30T15:55:56.605Z,0.97
2018-04-30T15:58:24.980Z,4.90
2018-04-30T16:00:53.323Z,1.20
2018-04-30T16:03:21.675Z,0.90
2018-04-30T16:05:50.006Z,2.97
2018-04-30T16:08:18.362Z,0.80
2018-04-30T16:10:46.824Z,0.87
2018-04-30T16:13:15.939Z,3.73
2018-04-30T16:15:44.249Z,0.87
2018-04-30T16:18:12.610Z,0.73
2018-04-30T16:20:41.395Z,1.10
2018-04-30T16:23:09.738Z,1.00
2018-04-30T16:25:38.856Z,0.87
2018-04-30T16:28:07.252Z,1.50
2018-04-30T16:30:35.607Z,1.23
2018-04-30T16:33:04.003Z,1.73
2018-04-30T16:35:32.336Z,1.87
2018-04-30T16:38:01.473Z,0.80
2018-04-30T16:40:29.843Z,1.47
2018-04-30T16:42:58.174Z,2.83
2018-04-30T16:45:26.548Z,2.50
2018-04-30T16:47:54.907Z,1.00
2018-04-30T16:50:23.274Z,0.80
2018-04-30T16:52:51.644Z,0.90
2018-04-30T16:55:19.957Z,1.43
2018-04-30T16:57:48.287Z,0.80
2018-04-30T17:00:16.745Z,1.27
2018-04-30T17:02:45.921Z,1.10
2018-04-30T17:05:14.738Z,1.87
2018-04-30T17:07:43.413Z,0.90
2018-04-30T17:10:12.502Z,1.47
2018-04-30T17:12:41.594Z,1.30
2018-04-30T17:15:10.696Z,1.60
2018-04-30T17:17:39.781Z,1.83
2018-04-30T17:20:09.302Z,1.67
2018-04-30T17:22:38.383Z,0.60
2018-04-30T17:25:07.482Z,1.40
2018-04-30T17:27:36.718Z,1.70
2018-04-30T17:30:05.058Z,2.73
2018-04-30T17:32:34.161Z,1.63
2018-04-30T17:35:03.393Z,1.00
2018-04-30T17:37:31.716Z,2.77
2018-04-30T17:40:00.045Z,0.80
2018-04-30T17:42:28.436Z,2.87
2018-04-30T17:44:56.750Z,0.70
2018-04-30T17:47:25.849Z,0.57
2018-04-30T17:49:54.952Z,1.23
2018-04-30T17:52:24.044Z,1.30
2018-04-30T17:54:53.169Z,1.37
2018-04-30T17:57:21.505Z,0.47
2018-04-30T17:59:49.922Z,2.63
2018-04-30T18:02:18.197Z,1.17
2018-04-30T18:04:46.536Z,0.87
2018-04-30T18:07:14.890Z,1.03
2018-04-30T18:09:43.230Z,3.07
2018-04-30T18:12:11.681Z,2.03
2018-04-30T18:14:40.785Z,2.00
2018-04-30T18:17:09.143Z,1.23
2018-04-30T18:19:38.260Z,2.30
2018-04-30T18:22:06.601Z,1.73
2018-04-30T18:24:34.971Z,2.47
2018-04-30T18:27:03.351Z,1.87
2018-04-30T18:29:31.829Z,0.90
2018-04-30T18:32:00.192Z,0.73
2018-04-30T18:34:28.668Z,0.93
2018-04-30T18:36:57.081Z,3.23
2018-04-30T18:39:25.415Z,2.40
2018-04-30T18:41:53.765Z,1.23
2018-04-30T18:44:22.137Z,0.40
2018-04-30T18:46:50.941Z,1.37
2018-04-30T18:49:19.292Z,0.53
2018-04-30T18:51:48.392Z,1.23
2018-04-30T18:54:17.513Z,0.70
2018-04-30T18:56:45.867Z,0.40
2018-04-30T18:59:14.578Z,1.57
2018-04-30T19:01:42.912Z,1.00
2018-04-30T19:04:12.028Z,0.77
2018-04-30T19:06:40.379Z,1.70
2018-04-30T19:09:08.716Z,0.60
2018-04-30T19:11:37.072Z,0.40
2018-04-30T19:14:05.419Z,1.00
2018-04-30T19:16:34.539Z,0.50
2018-04-30T19:19:02.871Z,0.83
2018-04-30T19:21:31.228Z,0.70
2018-04-30T19:23:59.557Z,0.63
2018-04-30T19:26:28.707Z,0.80
2018-04-30T19:28:57.547Z,0.93
2018-04-30T19:31:26.644Z,0.40
2018-04-30T19:33:54.981Z,1.83
2018-04-30T19:36:23.345Z,0.50
2018-04-30T19:38:51.668Z,0.87
2018-04-30T19:41:20.788Z,0.60
2018-04-30T19:43:49.127Z,0.67
2018-04-30T19:46:17.470Z,1.60
2018-04-30T19:48:45.814Z,1.97
2018-04-30T19:51:14.153Z,0.60
2018-04-30T19:53:42.485Z,0.80
2018-04-30T19:56:10.837Z,0.50
2018-04-30T19:58:39.345Z,0.73
2018-04-30T20:01:07.997Z,0.47
2018-04-30T20:03:37.066Z,1.10
2018-04-30T20:06:05.425Z,0.83
2018-04-30T20:08:33.785Z,0.47
2018-04-30T20:11:02.999Z,0.70
2018-04-30T20:13:31.433Z,1.07
2018-04-30T20:16:00.862Z,0.40
2018-04-30T20:18:29.202Z,0.60
2018-04-30T20:20:58.302Z,1.40
2018-04-30T20:23:26.696Z,0.50
2018-04-30T20:25:55.050Z,0.53
2018-04-30T20:28:24.677Z,0.70
2018-04-30T20:30:53.029Z,0.47
2018-04-30T20:33:22.140Z,0.60
2018-04-30T20:35:50.474Z,0.80
2018-04-30T20:38:18.859Z,1.23
2018-04-30T20:40:47.204Z,0.93
2018-04-30T20:43:15.566Z,0.53
2018-04-30T20:45:43.929Z,0.83
2018-04-30T20:48:12.280Z,0.70
2018-04-30T20:50:40.647Z,0.80
2018-04-30T20:53:08.980Z,2.60
2018-04-30T20:55:37.290Z,1.57
2018-04-30T20:58:05.672Z,0.80
2018-04-30T21:00:34.030Z,0.80
2018-04-30T21:03:02.385Z,1.00
2018-04-30T21:05:30.743Z,0.43
2018-04-30T21:07:59.082Z,0.77
2018-04-30T21:10:27.409Z,0.50
2018-04-30T21:12:55.745Z,0.70
2018-04-30T21:15:24.247Z,1.33
2018-04-30T21:17:53.396Z,0.57
2018-04-30T21:20:21.729Z,1.53
2018-04-30T21:22:50.080Z,0.87
2018-04-30T21:25:18.417Z,0.90
2018-04-30T21:27:46.751Z,0.90
2018-04-30T21:30:15.849Z,0.50
2018-04-30T21:32:44.961Z,1.00
2018-04-30T21:35:13.372Z,1.23
2018-04-30T21:37:41.739Z,0.77
2018-04-30T21:40:10.146Z,1.60
2018-04-30T21:42:38.460Z,3.27
2018-04-30T21:45:06.792Z,0.97
2018-04-30T21:47:35.178Z,0.90
2018-04-30T21:50:03.516Z,0.70
2018-04-30T21:52:31.832Z,1.97
2018-04-30T21:55:00.188Z,0.80
2018-04-30T21:57:28.526Z,1.53
2018-04-30T21:59:56.876Z,0.87
2018-04-30T22:02:25.201Z,0.77
2018-04-30T22:04:53.524Z,2.67
2018-04-30T22:07:21.876Z,0.80
2018-04-30T22:09:50.238Z,0.80
2018-04-30T22:12:18.699Z,0.93
2018-04-30T22:14:47.034Z,0.50
2018-04-30T22:17:15.332Z,0.60
2018-04-30T22:19:44.436Z,1.07
2018-04-30T22:22:12.760Z,0.50
2018-04-30T22:24:41.446Z,1.83
2018-04-30T22:27:09.778Z,2.87
2018-04-30T22:29:38.116Z,2.27
2018-04-30T22:32:06.471Z,0.60
2018-04-30T22:34:34.918Z,3.47
2018-04-30T22:37:03.278Z,1.83
2018-04-30T22:39:32.434Z,0.57
2018-04-30T22:42:00.780Z,2.87
2018-04-30T22:44:29.105Z,1.13
2018-04-30T22:46:57.468Z,1.23
2018-04-30T22:49:25.822Z,3.60
2018-04-30T22:51:54.168Z,1.37
2018-04-30T22:54:22.505Z,0.77
2018-04-30T22:56:50.833Z,2.20
2018-04-30T22:59:19.213Z,1.90
2018-04-30T23:01:47.541Z,0.70
2018-04-30T23:04:15.877Z,1.27
2018-04-30T23:06:44.251Z,1.13
2018-04-30T23:09:12.573Z,2.63
2018-04-30T23:11:40.917Z,1.13
2018-04-30T23:14:09.292Z,1.87
2018-04-30T23:16:37.624Z,1.60
2018-04-30T23:19:06.717Z,1.70
2018-04-30T23:21:35.836Z,0.50
2018-04-30T23:24:04.196Z,0.90
2018-04-30T23:26:33.276Z,0.50
2018-04-30T23:29:01.740Z,1.97
2018-04-30T23:31:30.063Z,2.43
2018-04-30T23:33:58.374Z,2.03
2018-04-30T23:36:26.741Z,0.50
2018-04-30T23:38:55.045Z,0.93
2018-04-30T23:41:23.405Z,3.10
2018-04-30T23:43:51.737Z,3.03
2018-04-30T23:46:20.224Z,0.87
2018-04-30T23:48:48.582Z,1.17
2018-04-30T23:51:17.676Z,0.83
2018-04-30T23:53:46.799Z,2.10
2018-04-30T23:56:15.120Z,0.70
2018-04-30T23:58:43.450Z,2.90
